createdAt,value
2023-09-08T00:02:14.073Z,11.48
2023-09-08T00:04:40.965Z,11.66
2023-09-08T00:07:07.787Z,11.13
2023-09-08T00:09:34.527Z,11.50
2023-09-08T00:12:04.229Z,11.23
2023-09-08T00:14:32.199Z,11.60
2023-09-08T00:16:59.459Z,11.55
2023-09-08T00:19:26.575Z,11.47
2023-09-08T00:21:53.350Z,11.17
2023-09-08T00:24:20.497Z,11.47
2023-09-08T00:26:47.366Z,11.23
2023-09-08T00:29:14.110Z,11.49
2023-09-08T00:31:41.031Z,11.99
2023-09-08T00:34:09.204Z,11.49
2023-09-08T00:36:36.035Z,11.07
2023-09-08T00:39:02.752Z,11.56
2023-09-08T00:41:29.841Z,11.94
2023-09-08T00:43:57.910Z,12.07
2023-09-08T00:46:24.723Z,12.11
2023-09-08T00:48:52.334Z,11.78
2023-09-08T00:51:19.046Z,11.49
2023-09-08T00:53:45.861Z,11.65
2023-09-08T00:56:12.700Z,11.61
2023-09-08T00:58:40.265Z,11.92
2023-09-08T01:01:08.225Z,12.34
2023-09-08T01:03:35.067Z,12.50
2023-09-08T01:06:01.940Z,12.19
2023-09-08T01:08:29.951Z,11.80
2023-09-08T01:11:05.296Z,12.13
2023-09-08T01:13:32.426Z,12.67
2023-09-08T01:15:59.359Z,12.33
2023-09-08T01:18:26.384Z,12.45
2023-09-08T01:21:24.206Z,12.46
2023-09-08T01:23:59.866Z,12.46
2023-09-08T01:26:28.226Z,12.02
2023-09-08T01:28:55.006Z,12.07
2023-09-08T01:31:22.979Z,13.07
2023-09-08T01:33:49.950Z,13.40
2023-09-08T01:36:17.014Z,12.96
2023-09-08T01:38:43.759Z,12.95
2023-09-08T01:41:11.980Z,12.86
2023-09-08T01:43:38.696Z,12.99
2023-09-08T01:46:05.472Z,12.38
2023-09-08T01:48:32.989Z,12.46
2023-09-08T01:51:00.087Z,12.16
2023-09-08T01:53:26.871Z,12.75
2023-09-08T01:55:53.668Z,12.42
2023-09-08T01:58:20.468Z,12.29
2023-09-08T02:00:56.461Z,13.06
2023-09-08T02:03:23.319Z,12.35
2023-09-08T02:05:50.034Z,12.95
2023-09-08T02:08:16.776Z,13.06
2023-09-08T02:10:43.566Z,13.00
2023-09-08T02:13:10.410Z,12.83
2023-09-08T02:15:37.647Z,12.73
2023-09-08T02:18:04.823Z,12.44
2023-09-08T02:20:31.605Z,13.21
2023-09-08T02:22:58.697Z,12.59
2023-09-08T02:25:25.631Z,12.68
2023-09-08T02:27:52.912Z,13.33
2023-09-08T02:30:20.116Z,12.83
2023-09-08T02:32:47.009Z,12.39
2023-09-08T02:35:14.347Z,12.47
2023-09-08T02:38:18.363Z,12.37
2023-09-08T02:40:45.541Z,13.06
2023-09-08T02:43:12.430Z,13.17
2023-09-08T02:45:39.246Z,13.84
2023-09-08T02:48:06.437Z,13.37
2023-09-08T02:50:33.359Z,13.15
2023-09-08T02:53:00.128Z,12.95
2023-09-08T02:55:26.907Z,13.25
2023-09-08T02:57:54.252Z,12.17
2023-09-08T03:00:21.569Z,12.21
2023-09-08T03:02:48.576Z,12.69
2023-09-08T03:05:15.885Z,12.43
2023-09-08T03:07:43.164Z,12.94
2023-09-08T03:10:10.281Z,12.77
2023-09-08T03:12:40.236Z,12.45
2023-09-08T03:15:07.539Z,12.42
2023-09-08T03:17:34.259Z,12.31
2023-09-08T03:20:01.166Z,12.39
2023-09-08T03:22:28.001Z,11.84
2023-09-08T03:24:56.475Z,12.91
2023-09-08T03:27:23.266Z,13.19
2023-09-08T03:29:50.155Z,13.81
2023-09-08T03:32:17.349Z,13.48
2023-09-08T03:34:45.178Z,14.61
2023-09-08T03:37:12.132Z,13.58
2023-09-08T03:39:43.869Z,13.62
2023-09-08T03:42:10.681Z,12.85
2023-09-08T03:44:37.481Z,12.75
2023-09-08T03:47:04.523Z,12.84
2023-09-08T03:49:34.840Z,12.56
2023-09-08T03:52:01.687Z,12.60
2023-09-08T03:54:34.553Z,13.74
2023-09-08T03:57:01.385Z,13.51
2023-09-08T03:59:28.507Z,13.62
2023-09-08T04:01:55.471Z,12.84
2023-09-08T04:04:22.333Z,13.01
2023-09-08T04:06:49.551Z,12.31
2023-09-08T04:09:16.336Z,13.03
2023-09-08T04:11:43.680Z,13.29
2023-09-08T04:14:30.536Z,13.05
2023-09-08T04:17:18.965Z,12.78
2023-09-08T04:19:45.914Z,12.63
2023-09-08T04:22:12.690Z,12.26
2023-09-08T04:24:39.503Z,13.05
2023-09-08T04:27:07.747Z,13.54
2023-09-08T04:29:35.028Z,13.90
2023-09-08T04:32:01.781Z,14.07
2023-09-08T04:34:29.049Z,13.27
2023-09-08T04:36:57.231Z,13.46
2023-09-08T04:39:24.261Z,13.59
2023-09-08T04:41:51.022Z,13.34
2023-09-08T04:44:21.088Z,13.58
2023-09-08T04:46:48.707Z,13.82
2023-09-08T04:49:15.931Z,13.35
2023-09-08T04:51:42.917Z,13.54
2023-09-08T04:54:09.701Z,12.96
2023-09-08T04:56:36.911Z,13.54
2023-09-08T04:59:03.739Z,13.93
2023-09-08T05:01:30.628Z,13.22
2023-09-08T05:03:57.694Z,13.80
2023-09-08T05:06:24.587Z,14.55
2023-09-08T05:08:51.430Z,13.73
2023-09-08T05:11:18.186Z,13.16
2023-09-08T05:13:45.423Z,13.86
2023-09-08T05:16:12.675Z,14.10
2023-09-08T05:18:40.046Z,13.31
2023-09-08T05:21:07.432Z,13.22
2023-09-08T05:23:34.672Z,13.60
2023-09-08T05:26:01.472Z,14.30
2023-09-08T05:28:28.243Z,13.79
2023-09-08T05:30:55.323Z,13.32
2023-09-08T05:33:22.396Z,13.11
2023-09-08T05:35:49.159Z,13.10
2023-09-08T05:38:15.897Z,14.72
2023-09-08T05:40:43.038Z,14.20
2023-09-08T05:43:09.862Z,13.21
2023-09-08T05:45:36.987Z,12.94
2023-09-08T05:48:03.979Z,13.08
2023-09-08T05:50:30.938Z,13.13
2023-09-08T05:52:57.778Z,13.07
2023-09-08T05:55:24.516Z,13.46
2023-09-08T05:58:04.237Z,13.03
2023-09-08T06:00:30.992Z,13.09
2023-09-08T06:02:57.940Z,13.21
2023-09-08T06:05:24.904Z,13.47
2023-09-08T06:08:04.467Z,13.03
2023-09-08T06:10:33.065Z,12.35
2023-09-08T06:13:00.038Z,12.31
2023-09-08T06:15:27.193Z,11.84
2023-09-08T06:17:54.025Z,11.90
2023-09-08T06:20:21.398Z,11.87
2023-09-08T06:22:48.198Z,12.12
2023-09-08T06:25:15.048Z,12.46
2023-09-08T06:27:42.179Z,12.10
2023-09-08T06:30:09.367Z,11.76
2023-09-08T06:32:36.182Z,12.30
2023-09-08T06:35:03.608Z,12.65
2023-09-08T06:37:34.593Z,13.44
2023-09-08T06:40:01.327Z,15.13
2023-09-08T06:42:28.077Z,15.31
2023-09-08T06:44:54.832Z,15.77
2023-09-08T06:47:21.627Z,14.47
2023-09-08T06:49:48.484Z,14.78
2023-09-08T06:52:15.741Z,13.82
2023-09-08T06:54:42.493Z,13.07
2023-09-08T06:57:09.238Z,13.36
2023-09-08T06:59:36.027Z,12.89
2023-09-08T07:02:02.989Z,12.68
2023-09-08T07:04:31.642Z,13.01
2023-09-08T07:06:58.714Z,12.63
2023-09-08T07:09:25.558Z,12.29
2023-09-08T07:11:52.289Z,12.40
2023-09-08T07:14:19.027Z,12.42
2023-09-08T07:16:45.826Z,12.75
2023-09-08T07:19:13.238Z,12.30
2023-09-08T07:21:40.729Z,12.27
2023-09-08T07:24:07.916Z,12.71
2023-09-08T07:26:34.639Z,12.45
2023-09-08T07:29:01.374Z,12.31
2023-09-08T07:31:28.136Z,12.61
2023-09-08T07:33:54.984Z,12.55
2023-09-08T07:36:21.754Z,12.53
2023-09-08T07:38:48.634Z,12.26
2023-09-08T07:41:15.579Z,12.25
2023-09-08T07:43:42.563Z,12.54
2023-09-08T07:46:09.565Z,12.98
2023-09-08T07:48:37.111Z,12.73
2023-09-08T07:51:04.047Z,12.62
2023-09-08T07:53:30.908Z,12.13
2023-09-08T07:55:59.959Z,12.33
2023-09-08T07:58:27.159Z,12.60
2023-09-08T08:00:53.876Z,12.78
2023-09-08T08:03:20.677Z,12.49
2023-09-08T08:05:47.450Z,11.96
2023-09-08T08:08:14.288Z,12.52
2023-09-08T08:10:42.391Z,12.62
2023-09-08T08:13:09.107Z,12.32
2023-09-08T08:15:41.174Z,12.66
2023-09-08T08:18:08.112Z,12.45
2023-09-08T08:20:35.072Z,13.15
2023-09-08T08:23:02.846Z,12.94
2023-09-08T08:25:29.631Z,13.01
2023-09-08T08:27:56.822Z,12.67
2023-09-08T08:30:23.767Z,13.08
2023-09-08T08:32:51.775Z,12.98
2023-09-08T08:35:18.685Z,13.00
2023-09-08T08:37:45.718Z,13.17
2023-09-08T08:40:13.274Z,12.84
2023-09-08T08:42:40.608Z,12.80
2023-09-08T08:45:08.683Z,12.49
2023-09-08T08:47:36.565Z,12.67
2023-09-08T08:50:03.399Z,13.06
2023-09-08T08:52:30.854Z,12.54
2023-09-08T08:54:58.216Z,12.84
2023-09-08T08:57:25.110Z,12.72
2023-09-08T08:59:52.322Z,13.74
2023-09-08T09:02:19.527Z,13.62
2023-09-08T09:04:46.573Z,13.12
2023-09-08T09:07:13.373Z,13.23
2023-09-08T09:09:40.449Z,12.53
2023-09-08T09:12:07.663Z,12.84
2023-09-08T09:14:35.072Z,13.66
2023-09-08T09:17:02.293Z,13.45
2023-09-08T09:19:32.188Z,13.48
2023-09-08T09:21:59.344Z,12.70
2023-09-08T09:24:40.135Z,13.01
2023-09-08T09:27:07.034Z,12.74
2023-09-08T09:29:35.566Z,13.34
2023-09-08T09:32:07.329Z,13.28
2023-09-08T09:34:34.163Z,13.01
2023-09-08T09:37:01.785Z,12.52
2023-09-08T09:39:28.620Z,12.79
2023-09-08T09:41:56.281Z,12.77
2023-09-08T09:44:24.661Z,12.93
2023-09-08T09:46:53.186Z,12.70
2023-09-08T09:49:20.373Z,12.93
2023-09-08T09:51:51.131Z,12.85
2023-09-08T09:54:18.430Z,12.67
2023-09-08T09:56:46.963Z,12.56
2023-09-08T09:59:14.359Z,12.45
2023-09-08T10:01:41.839Z,12.52
2023-09-08T10:04:08.637Z,12.74
2023-09-08T10:06:38.757Z,12.94
2023-09-08T10:09:06.686Z,12.89
2023-09-08T10:11:51.227Z,13.15
2023-09-08T10:14:19.241Z,12.80
2023-09-08T10:16:47.104Z,12.24
2023-09-08T10:19:13.933Z,12.58
2023-09-08T10:21:42.030Z,12.62
2023-09-08T10:24:27.409Z,12.85
2023-09-08T10:27:01.860Z,13.13
2023-09-08T10:29:28.684Z,12.50
2023-09-08T10:31:57.179Z,12.20
2023-09-08T10:34:25.602Z,12.23
2023-09-08T10:36:53.324Z,12.46
2023-09-08T10:39:49.094Z,11.51
2023-09-08T10:42:22.483Z,12.00
2023-09-08T10:44:59.154Z,11.80
2023-09-08T10:47:26.672Z,11.76
2023-09-08T10:49:53.874Z,11.56
2023-09-08T10:52:23.514Z,11.32
2023-09-08T10:54:55.131Z,11.40
2023-09-08T10:57:22.811Z,11.16
2023-09-08T10:59:57.658Z,10.94
2023-09-08T11:02:40.230Z,11.04
2023-09-08T11:05:11.732Z,11.64
2023-09-08T11:07:39.885Z,11.49
2023-09-08T11:10:08.771Z,11.51
2023-09-08T11:12:35.559Z,11.78
2023-09-08T11:15:06.427Z,11.61
2023-09-08T11:17:33.567Z,11.34
2023-09-08T11:20:00.405Z,11.51
2023-09-08T11:22:27.211Z,11.41
2023-09-08T11:24:57.269Z,11.29
2023-09-08T11:27:24.140Z,11.34
2023-09-08T11:29:51.100Z,11.45
2023-09-08T11:32:19.414Z,11.61
2023-09-08T11:34:46.325Z,11.72
2023-09-08T11:37:14.184Z,11.58
2023-09-08T11:39:41.514Z,11.43
2023-09-08T11:42:09.655Z,11.34
2023-09-08T11:44:36.701Z,11.20
2023-09-08T11:47:04.393Z,11.11
2023-09-08T11:49:41.030Z,11.43
2023-09-08T11:52:08.008Z,11.69
2023-09-08T11:54:36.472Z,11.11
2023-09-08T11:57:07.162Z,10.85
2023-09-08T11:59:36.915Z,10.85
2023-09-08T12:02:04.210Z,10.70
2023-09-08T12:04:30.990Z,10.48
2023-09-08T12:06:58.135Z,10.13
2023-09-08T12:09:25.892Z,10.29
2023-09-08T12:11:52.705Z,10.38
2023-09-08T12:14:19.563Z,10.47
2023-09-08T12:16:46.362Z,10.21
2023-09-08T12:19:35.426Z,10.46
2023-09-08T12:22:02.810Z,10.19
2023-09-08T12:24:49.329Z,10.20
2023-09-08T12:27:17.110Z,10.46
2023-09-08T12:29:59.577Z,10.49
2023-09-08T12:32:26.989Z,10.19
2023-09-08T12:34:53.791Z,9.80
2023-09-08T12:37:24.606Z,10.04
2023-09-08T12:39:51.990Z,9.90
2023-09-08T12:42:27.429Z,10.01
2023-09-08T12:44:54.772Z,9.53
2023-09-08T12:47:21.539Z,10.60
2023-09-08T12:49:48.443Z,10.09
2023-09-08T12:52:16.388Z,10.12
2023-09-08T12:54:43.142Z,9.64
2023-09-08T12:57:09.939Z,9.38
2023-09-08T12:59:36.790Z,9.80
2023-09-08T13:02:04.349Z,9.58
2023-09-08T13:04:31.101Z,9.54
2023-09-08T13:06:57.944Z,9.63
2023-09-08T13:09:24.897Z,9.45
2023-09-08T13:11:51.779Z,9.46
2023-09-08T13:14:21.556Z,9.49
2023-09-08T13:16:48.350Z,9.11
2023-09-08T13:19:15.933Z,9.46
2023-09-08T13:21:42.762Z,9.40
2023-09-08T13:24:10.867Z,9.46
2023-09-08T13:26:41.412Z,8.74
2023-09-08T13:29:08.976Z,9.51
2023-09-08T13:31:35.824Z,9.54
2023-09-08T13:34:02.565Z,9.23
2023-09-08T13:36:29.331Z,9.33
2023-09-08T13:38:56.072Z,9.54
2023-09-08T13:41:24.031Z,9.30
2023-09-08T13:43:53.763Z,9.40
2023-09-08T13:46:20.559Z,9.89
2023-09-08T13:48:49.028Z,9.75
2023-09-08T13:51:18.085Z,10.36
2023-09-08T13:53:47.838Z,10.11
2023-09-08T13:56:15.841Z,9.58
2023-09-08T13:58:49.698Z,9.62
2023-09-08T14:01:19.621Z,9.67
2023-09-08T14:06:21.500Z,9.91
2023-09-08T14:11:34.864Z,9.91
2023-09-08T14:14:09.938Z,9.54
2023-09-08T14:16:36.855Z,9.51
2023-09-08T14:19:03.630Z,9.59
2023-09-08T14:21:30.847Z,9.57
2023-09-08T14:23:57.778Z,9.69
2023-09-08T14:26:24.653Z,9.36
2023-09-08T14:28:51.944Z,9.19
2023-09-08T14:31:18.712Z,9.18
2023-09-08T14:33:45.820Z,8.98
2023-09-08T14:36:17.151Z,9.21
2023-09-08T14:38:46.837Z,9.21
2023-09-08T14:41:13.700Z,9.34
2023-09-08T14:43:41.254Z,9.39
2023-09-08T14:46:08.177Z,9.08
2023-09-08T14:48:34.917Z,8.77
2023-09-08T14:51:02.187Z,8.99
2023-09-08T14:53:31.205Z,9.10
2023-09-08T14:55:59.131Z,8.87
2023-09-08T14:58:25.930Z,8.93
2023-09-08T15:00:53.211Z,9.06
2023-09-08T15:03:20.622Z,9.13
2023-09-08T15:05:47.422Z,9.04
2023-09-08T15:08:14.204Z,8.90
2023-09-08T15:10:41.064Z,8.99
2023-09-08T15:13:07.892Z,9.04
2023-09-08T15:15:35.065Z,9.02
2023-09-08T15:18:01.881Z,8.66
2023-09-08T15:20:29.029Z,8.79
2023-09-08T15:22:56.212Z,8.59
2023-09-08T15:25:23.050Z,8.61
2023-09-08T15:27:50.177Z,8.73
2023-09-08T15:30:17.224Z,8.93
2023-09-08T15:32:44.050Z,8.92
2023-09-08T15:35:11.192Z,8.66
2023-09-08T15:37:38.005Z,8.38
2023-09-08T15:40:05.660Z,8.30
2023-09-08T15:42:32.451Z,8.31
2023-09-08T15:44:59.460Z,8.00
2023-09-08T15:47:26.620Z,8.04
2023-09-08T15:49:53.599Z,7.98
2023-09-08T15:52:21.349Z,7.89
2023-09-08T15:54:49.151Z,8.07
2023-09-08T15:57:16.266Z,8.13
2023-09-08T15:59:43.502Z,8.38
2023-09-08T16:02:11.398Z,8.41
2023-09-08T16:04:40.484Z,8.30
2023-09-08T16:07:07.412Z,7.74
2023-09-08T16:09:34.613Z,7.97
2023-09-08T16:12:01.364Z,7.68
2023-09-08T16:14:28.635Z,7.84
2023-09-08T16:16:55.449Z,7.99
2023-09-08T16:19:22.559Z,7.43
2023-09-08T16:21:49.758Z,7.75
2023-09-08T16:24:17.939Z,7.56
2023-09-08T16:26:45.287Z,7.37
2023-09-08T16:29:13.408Z,7.52
2023-09-08T16:31:40.147Z,7.43
2023-09-08T16:34:07.142Z,7.63
2023-09-08T16:36:33.929Z,7.51
2023-09-08T16:39:01.952Z,7.62
2023-09-08T16:41:28.778Z,7.77
2023-09-08T16:43:55.532Z,7.88
2023-09-08T16:46:22.461Z,7.53
2023-09-08T16:48:49.633Z,7.74
2023-09-08T16:51:16.393Z,7.53
2023-09-08T16:53:43.143Z,7.75
2023-09-08T16:56:10.162Z,8.08
2023-09-08T16:58:37.065Z,7.78
2023-09-08T17:01:03.818Z,7.82
2023-09-08T17:03:30.772Z,7.64
2023-09-08T17:05:57.756Z,7.70
2023-09-08T17:08:24.499Z,7.75
2023-09-08T17:10:51.291Z,8.34
2023-09-08T17:13:18.047Z,8.13
2023-09-08T17:15:46.059Z,7.95
2023-09-08T17:18:13.367Z,8.25
2023-09-08T17:20:40.235Z,8.48
2023-09-08T17:23:07.422Z,8.62
2023-09-08T17:25:34.262Z,8.66
2023-09-08T17:28:02.427Z,8.70
2023-09-08T17:30:29.234Z,8.32
2023-09-08T17:32:56.437Z,8.63
2023-09-08T17:35:23.415Z,8.81
2023-09-08T17:37:50.206Z,9.21
2023-09-08T17:40:16.953Z,9.16
2023-09-08T17:42:43.761Z,9.58
2023-09-08T17:45:12.416Z,8.98
2023-09-08T17:47:40.687Z,9.25
2023-09-08T17:50:07.641Z,9.88
2023-09-08T17:52:34.419Z,9.64
2023-09-08T17:55:01.403Z,9.69
2023-09-08T17:57:28.428Z,9.91
2023-09-08T17:59:55.765Z,9.49
2023-09-08T18:02:23.160Z,9.67
2023-09-08T18:04:52.419Z,10.03
2023-09-08T18:07:19.327Z,10.68
2023-09-08T18:09:46.177Z,11.32
2023-09-08T18:12:13.346Z,11.73
2023-09-08T18:14:40.448Z,11.99
2023-09-08T18:17:07.256Z,12.67
2023-09-08T18:19:34.315Z,12.09
2023-09-08T18:22:02.444Z,11.95
2023-09-08T18:24:29.246Z,12.04
2023-09-08T18:26:56.446Z,11.32
2023-09-08T18:29:23.396Z,11.18
2023-09-08T18:31:50.488Z,11.21
2023-09-08T18:34:17.692Z,10.94
2023-09-08T18:36:44.484Z,10.58
2023-09-08T18:39:11.225Z,10.24
2023-09-08T18:41:38.001Z,10.47
2023-09-08T18:44:05.942Z,10.08
2023-09-08T18:46:32.955Z,10.80
2023-09-08T18:48:59.805Z,10.27
2023-09-08T18:51:26.821Z,9.99
2023-09-08T18:53:55.253Z,9.43
2023-09-08T18:56:22.333Z,9.03
2023-09-08T18:58:49.280Z,9.41
2023-09-08T19:01:16.101Z,9.54
2023-09-08T19:03:42.999Z,9.22
2023-09-08T19:06:09.881Z,9.21
2023-09-08T19:08:37.082Z,9.10
2023-09-08T19:11:03.891Z,9.32
2023-09-08T19:13:30.865Z,9.14
2023-09-08T19:15:57.768Z,8.78
2023-09-08T19:18:25.524Z,9.14
2023-09-08T19:20:52.700Z,8.70
2023-09-08T19:23:20.550Z,9.62
2023-09-08T19:25:47.612Z,9.21
2023-09-08T19:28:14.762Z,8.91
2023-09-08T19:30:46.933Z,8.74
2023-09-08T19:33:14.022Z,8.50
2023-09-08T19:35:42.209Z,8.73
2023-09-08T19:38:09.273Z,9.14
2023-09-08T19:40:36.059Z,8.57
2023-09-08T19:43:03.140Z,9.53
2023-09-08T19:45:29.883Z,9.19
2023-09-08T19:47:56.770Z,9.26
2023-09-08T19:50:23.699Z,9.32
2023-09-08T19:52:50.670Z,8.73
2023-09-08T19:55:17.442Z,9.19
2023-09-08T19:57:44.440Z,9.12
2023-09-08T20:00:12.332Z,8.83
2023-09-08T20:02:39.985Z,8.73
2023-09-08T20:05:07.929Z,8.96
2023-09-08T20:07:34.847Z,8.45
2023-09-08T20:10:02.411Z,8.74
2023-09-08T20:12:29.425Z,8.91
2023-09-08T20:14:57.239Z,8.76
2023-09-08T20:17:24.036Z,8.61
2023-09-08T20:19:54.576Z,8.83
2023-09-08T20:22:21.575Z,8.69
2023-09-08T20:24:48.376Z,8.58
2023-09-08T20:27:15.837Z,8.48
2023-09-08T20:29:43.109Z,8.23
2023-09-08T20:32:10.381Z,8.39
2023-09-08T20:34:37.225Z,8.76
2023-09-08T20:37:04.033Z,8.78
2023-09-08T20:39:30.889Z,8.56
2023-09-08T20:42:00.787Z,8.29
2023-09-08T20:44:27.532Z,8.36
2023-09-08T20:46:54.502Z,8.21
2023-09-08T20:49:21.635Z,8.78
2023-09-08T20:51:48.374Z,10.51
2023-09-08T20:54:15.540Z,8.96
2023-09-08T20:56:42.293Z,8.70
2023-09-08T20:59:09.058Z,8.71
2023-09-08T21:01:35.872Z,8.95
2023-09-08T21:04:03.004Z,9.06
2023-09-08T21:06:31.134Z,9.15
2023-09-08T21:08:57.902Z,9.43
2023-09-08T21:11:24.819Z,9.81
2023-09-08T21:13:51.628Z,9.71
2023-09-08T21:16:19.526Z,10.30
2023-09-08T21:18:46.456Z,9.63
2023-09-08T21:21:13.189Z,9.56
2023-09-08T21:23:47.276Z,9.55
2023-09-08T21:26:14.061Z,9.33
2023-09-08T21:28:40.823Z,9.18
2023-09-08T21:31:07.899Z,9.31
2023-09-08T21:33:35.677Z,9.60
2023-09-08T21:36:02.789Z,9.31
2023-09-08T21:38:29.554Z,9.33
2023-09-08T21:40:56.354Z,9.21
2023-09-08T21:43:23.447Z,8.91
2023-09-08T21:45:50.703Z,8.98
2023-09-08T21:48:20.828Z,8.80
2023-09-08T21:50:47.821Z,9.25
2023-09-08T21:53:14.573Z,9.32
2023-09-08T21:55:41.292Z,9.04
2023-09-08T21:58:08.040Z,9.66
2023-09-08T22:00:35.296Z,9.56
2023-09-08T22:03:02.622Z,9.73
2023-09-08T22:05:29.903Z,9.87
2023-09-08T22:07:57.241Z,9.65
2023-09-08T22:10:24.037Z,9.90
2023-09-08T22:12:51.353Z,9.59
2023-09-08T22:15:19.364Z,9.63
2023-09-08T22:17:49.673Z,9.27
2023-09-08T22:20:16.695Z,9.50
2023-09-08T22:22:44.226Z,9.69
2023-09-08T22:25:12.000Z,10.00
2023-09-08T22:27:39.124Z,9.63
2023-09-08T22:30:06.407Z,9.92
2023-09-08T22:32:33.812Z,9.73
2023-09-08T22:35:00.585Z,10.13
2023-09-08T22:37:27.602Z,10.17
2023-09-08T22:39:55.416Z,10.01
2023-09-08T22:42:22.640Z,10.18
2023-09-08T22:44:49.565Z,10.53
2023-09-08T22:47:16.763Z,9.83
2023-09-08T22:50:01.137Z,10.33
2023-09-08T22:52:28.278Z,10.81
2023-09-08T22:55:02.553Z,10.36
2023-09-08T22:57:44.795Z,10.23
2023-09-08T23:00:12.210Z,10.47
2023-09-08T23:02:39.301Z,10.36
2023-09-08T23:05:06.217Z,10.85
2023-09-08T23:07:33.078Z,10.78
2023-09-08T23:10:01.473Z,10.68
2023-09-08T23:12:28.200Z,10.57
2023-09-08T23:14:55.065Z,10.69
2023-09-08T23:17:22.189Z,10.59
2023-09-08T23:19:49.115Z,10.35
2023-09-08T23:22:15.993Z,10.60
2023-09-08T23:24:42.945Z,10.97
2023-09-08T23:27:09.766Z,11.04
2023-09-08T23:29:36.513Z,10.72
2023-09-08T23:32:03.874Z,11.05
2023-09-08T23:34:30.795Z,10.98
2023-09-08T23:36:58.143Z,10.81
2023-09-08T23:39:24.955Z,11.00
2023-09-08T23:41:51.768Z,10.76
2023-09-08T23:44:19.005Z,10.82
2023-09-08T23:46:46.034Z,11.12
2023-09-08T23:49:13.353Z,10.68
2023-09-08T23:51:40.158Z,11.09
2023-09-08T23:54:07.040Z,10.93
2023-09-08T23:56:35.297Z,10.87
2023-09-08T23:59:02.695Z,11.09
